GCGM/GMZ METAR and TAF weather

Enter ICAO airport designator
Station Type Date Time Source
GCGM METAR 2020/08/10 18:00 UTC NOAA

GCGM 101800Z AUTO 22006KT 170V250 CAVOK 25/19 Q1014 RMK R09/VRB05KT ARP/21006KT 160V270


Station Type Date Time Source
GCGM Decoded METAR 2020/08/10 18:00 UTC NOAA

Station name not available
Aug 10, 2020 - 02:00 PM EDT / 2020.08.10 1800 UTC
Wind: from the SW (220 degrees) at 7 MPH (6 KT) (direction variable):0
Visibility: greater than 7 mile(s):0
Temperature: 77 F (25 C)
Dew Point: 66 F (19 C)
Relative Humidity: 69%
Pressure (altimeter): 29.94 in. Hg (1014 hPa)
ob: GCGM 101800Z AUTO 22006KT 170V250 CAVOK 25/19 Q1014 RMK R09/VRB05KT ARP/21006KT 160V270
cycle: 18

Station Type Date Time Source
GCGM TAF 2020/08/10 15:00 UTC NOAA

TAF GCGM 101400Z 1015/1115 22008KT 9999 FEW020 TX26/1114Z TN20/1106Z

Example: see airport list